Observations for CHICAGO MIDWAY, IL (MDW)

KMDW 241653Z 07010KT 10SM BKN017 OVC080 03/00 A3010 RMK AO2 SLP201 T00330000
KMDW 241637Z 07010KT 10SM BKN017 OVC080 03/00 A3011 RMK AO2 T00330000
KMDW 241553Z 07012KT 10SM FEW020 OVC090 03/M01 A3013 RMK AO2 SLP211 T00281006   
KMDW 241453Z 08012KT 10SM BKN095 OVC200 02/M01 A3016 RMK AO2 SLP221 T00221006 56008 
KMDW 241353Z 07012KT 8SM SCT019 OVC095 02/M01 A3016 RMK AO2 SLP224 T00171011
KMDW 241253Z 07015KT 9SM FEW014 OVC018 02/M02 A3017 RMK AO2 SLP225 T00171017
KMDW 241237Z 07017KT 9SM SCT014 OVC018 02/M01 A3017 RMK AO2 T00171011
KMDW 241153Z 07015KT 7SM BKN011 OVC014 02/M01 A3019 RMK AO2 SLP231 T00171006 10022 20017 56015  
KMDW 241053Z 07011KT 7SM BKN011 OVC022 02/00 A3019 RMK AO2 SLP231 T00220000 
KMDW 241044Z 05014KT 7SM BKN011 OVC023 02/00 A3019 RMK AO2 T00220000
KMDW 241022Z 06016KT 7SM BKN023 OVC170 02/00 A3020 RMK AO2 T00220000
KMDW 240953Z COR 04009KT 7SM FEW015 SCT023 OVC170 02/M01 A3021 RMK AO2 SLP238 T00171006 
KMDW 240853Z 03007KT 8SM OVC180 02/M02 A3023 RMK AO2 SLP245 T00171017 55006 
KMDW 240753Z 02006KT 8SM OVC160 02/M02 A3023 RMK AO2 SLP244 T00171017   
KMDW 240653Z 36007KT 8SM FEW160 OVC200 02/M02 A3023 RMK AO2 SLP244 T00171017
KMDW 240553Z 34008KT 8SM BKN170 OVC300 02/M01 A3025 RMK AO2 SLP252 T00171011 10039 20017 400720017 58003
KMDW 240514Z 33007KT 9SM SCT017 OVC250 02/M01 A3026 RMK AO2 T00221011
KMDW 240453Z 31008KT 9SM OVC016 03/00 A3027 RMK AO2 SLP257 T00280000
KMDW 240353Z 28004KT 10SM OVC018 04/01 A3027 RMK AO2 SLP256 T00390006   
KMDW 240253Z 27006KT 10SM BKN019 OVC180 04/01 A3026 RMK AO2 SLP253 T00390006 51004  
KMDW 240153Z 28006KT 10SM OVC020 04/01 A3025 RMK AO2 SLP252 T00390006   
KMDW 240053Z 28006KT 10SM OVC020 04/01 A3025 RMK AO2 SLP252 T00390006   
KMDW 232353Z 28005KT 10SM OVC015 04/01 A3025 RMK AO2 SLP250 T00390011 10056 20039 53012 
KMDW 232253Z 26012KT 10SM OVC014 04/01 A3023 RMK AO2 SLP244 T00390011   
KMDW 232153Z 27010KT 10SM OVC010 04/02 A3022 RMK AO2 SLP241 T00390022   
KMDW 232053Z 27015G20KT 10SM OVC011 04/02 A3021 RMK AO2 SLP237 T00440022 53013  
KMDW 231953Z 27011KT 10SM OVC012 05/03 A3018 RMK AO2 SLP228 T00500028   
KMDW 231853Z 27013KT 10SM OVC011 05/03 A3018 RMK AO2 SLP228 T00500028   
KMDW 231820Z 27012G19KT 10SM OVC010 05/03 A3018 RMK AO2 T00500033
KMDW 231753Z 25015G20KT 10SM BKN008 OVC013 06/04 A3017 RMK AO2 SLP224 60000 T00560039 10072 20050 51023 
KMDW 231653Z 26015G20KT 10SM OVC009 06/04 A3016 RMK AO2 SLP220 T00610044